Página principal
METAR-TAF:

METAR-TAF

Aeroportos :

Aeroporto Internacional de Cartum

Cartum, Sudão

latitude: 15-36N, longitude: 032-33E, altura: 382 m

Observação actual do tempo

O boletim foi feito há 25 minutos, às 19:30 UTC
Vento 4 kt de nor-noroeste
Temperatura 31°C
Humidade 12%
Pressão 1011 hPa
Visibilidade 10 km ou mais
sem nuvens abaixo de 1500 metros e sem cumulonimbus

METAR: HSSS 241930Z 34004KT CAVOK 31/M02 Q1011 NOSIG

Hora: 22:55 (19:55 UTC)

Previsão

O boletim foi feito há 2 horas e 55 minutos, às 17:00 UTC
Previsão válida de 24 às 18 UTC a 25 às 24 UTC
Vento 8 kt de norte com rajadas de 18 kt
Visibilidade 10 km ou mais
sem nuvens abaixo de 1500 metros e sem cumulonimbus
Temporariamente
de 25 às 06 UTC a 25 às 09 UTC
Visibilidade: 6000 m

TAF: HSSS 241700Z 2418/2524 36008G18KT CAVOK TEMPO 2506/2509 6000 NSC

Observações e previsões do tempo de mais de 4000 aeroportos (mensagens METAR e TAF).

As estações disponíveis são os pontos amarelos e vermelhos sobre o mapa.

Mova o rato sobre o mapa para ver o nome da estação.

Depois clique no ponto para visualizar as observações e previsões meteorológicas.

Para alterar o mapa : clique nos botões verdes com uma cruz preta para aumentar o zoom; no botão verde com uma pitada de zoom; ou nas setas verdes para mapas adjacentes.


METAR-TAF: